Time;durP1;ratioP1;P1;durP2;ratioP2;P2;SDS_P1;SDS_P2;PMS_P1;PMS_P2;Temp;Humidity;BMP_temperature;BMP_pressure;BME280_temperature;BME280_humidity;BME280_pressure;Samples;Min_cycle;Max_cycle;Signal;HPM_P1;HPM_P2
2021/10/28 00:14:05;;;;;;;5.18;4.15;;;11.40;92.90;;;;;;4954532;28;20041;-68
2021/10/28 00:16:33;;;;;;;9.38;4.40;;;11.30;93.30;;;;;;4954669;28;20024;-68
2021/10/28 00:19:00;;;;;;;5.50;4.05;;;11.30;93.30;;;;;;4952850;28;20852;-68
2021/10/28 00:21:45;;;;;;;7.78;4.60;;;11.30;93.30;;;;;;4952000;28;20074;-68
2021/10/28 00:24:13;;;;;;;7.03;4.55;;;11.30;93.30;;;;;;4954979;28;20027;-68
2021/10/28 00:26:42;;;;;;;6.35;4.90;;;11.30;93.40;;;;;;4952689;28;20038;-69
2021/10/28 00:29:10;;;;;;;10.40;5.28;;;11.30;93.50;;;;;;4959361;28;20125;-68
2021/10/28 00:31:39;;;;;;;7.07;4.85;;;11.30;93.50;;;;;;4953144;28;20054;-68
2021/10/28 00:34:07;;;;;;;6.25;4.05;;;11.30;93.30;;;;;;4952191;28;20058;-68
2021/10/28 00:36:34;;;;;;;4.63;4.00;;;11.30;93.20;;;;;;4954454;28;20041;-68
2021/10/28 00:39:01;;;;;;;7.40;4.70;;;11.20;93.10;;;;;;4951095;28;20178;-68
2021/10/28 00:41:27;;;;;;;10.23;5.70;;;11.20;93.50;;;;;;4954411;28;20030;-68
2021/10/28 00:43:56;;;;;;;8.07;4.43;;;11.20;93.50;;;;;;4955475;28;20388;-68
2021/10/28 00:46:24;;;;;;;5.32;4.13;;;11.20;93.30;;;;;;4959792;28;20031;-68
2021/10/28 00:48:51;;;;;;;6.30;4.70;;;11.10;93.30;;;;;;4959050;28;20046;-68
2021/10/28 00:51:23;;;;;;;8.35;4.55;;;11.10;93.50;;;;;;4959131;28;20046;-68
2021/10/28 00:53:50;;;;;;;6.85;4.47;;;11.10;93.70;;;;;;4960684;28;20042;-68
2021/10/28 00:56:17;;;;;;;6.90;4.97;;;11.10;93.70;;;;;;4960809;28;20038;-68
2021/10/28 00:58:43;;;;;;;6.82;4.90;;;11.10;93.70;;;;;;4959828;28;20476;-68
2021/10/28 01:01:09;;;;;;;6.70;4.55;;;11.10;93.90;;;;;;4957032;28;20071;-68
2021/10/28 01:03:36;;;;;;;7.07;4.70;;;11.10;93.70;;;;;;4959483;28;20081;-68
2021/10/28 01:06:04;;;;;;;7.25;5.57;;;11.10;93.70;;;;;;4958109;28;20124;-68
2021/10/28 01:08:31;;;;;;;7.65;4.88;;;11.10;93.70;;;;;;4958451;28;20042;-68
2021/10/28 01:10:58;;;;;;;7.95;4.55;;;11.10;93.50;;;;;;4974789;28;20038;-68
2021/10/28 01:13:24;;;;;;;5.93;4.40;;;11.10;93.50;;;;;;4958953;28;20039;-68
2021/10/28 01:15:53;;;;;;;6.20;4.85;;;11.00;93.30;;;;;;4961020;28;20566;-68
2021/10/28 01:18:20;;;;;;;6.72;4.53;;;11.00;93.30;;;;;;4971092;28;20124;-68
2021/10/28 01:20:51;;;;;;;8.63;5.20;;;11.00;93.30;;;;;;4959332;28;20487;-68
2021/10/28 01:23:21;;;;;;;6.65;4.90;;;10.90;93.60;;;;;;4957773;28;20043;-68
2021/10/28 01:25:54;;;;;;;9.75;4.97;;;10.90;93.50;;;;;;4956997;28;20054;-68
2021/10/28 01:28:21;;;;;;;7.50;5.10;;;10.80;93.60;;;;;;4959520;28;20659;-68
2021/10/28 01:30:52;;;;;;;7.07;5.03;;;10.80;93.90;;;;;;4956557;28;20050;-68
2021/10/28 01:33:19;;;;;;;7.57;4.72;;;10.80;93.70;;;;;;4959234;28;20118;-68
2021/10/28 01:35:45;;;;;;;7.63;4.88;;;10.70;93.70;;;;;;4958025;28;20050;-68
2021/10/28 01:38:13;;;;;;;6.10;4.95;;;10.70;93.80;;;;;;4957741;28;20125;-68
2021/10/28 01:40:40;;;;;;;6.13;4.50;;;10.70;93.70;;;;;;4958560;28;20083;-68
2021/10/28 01:43:06;;;;;;;8.57;5.63;;;10.60;93.90;;;;;;4957028;28;20035;-68
2021/10/28 01:45:32;;;;;;;7.20;5.32;;;10.70;94.10;;;;;;4959448;28;20037;-68
2021/10/28 01:47:59;;;;;;;7.90;5.60;;;10.60;94.10;;;;;;4956561;28;20047;-68
2021/10/28 01:50:28;;;;;;;7.25;5.07;;;10.60;94.30;;;;;;4959244;28;20066;-68
2021/10/28 01:52:54;;;;;;;6.82;5.28;;;10.60;94.00;;;;;;4971919;28;20043;-68
2021/10/28 01:55:19;;;;;;;6.65;5.00;;;10.60;93.90;;;;;;4956784;28;20054;-68
2021/10/28 01:57:47;;;;;;;6.80;4.78;;;10.50;93.80;;;;;;4957662;28;20533;-69
2021/10/28 02:00:22;;;;;;;7.55;5.40;;;10.50;93.80;;;;;;4957842;28;20035;-68
2021/10/28 02:02:49;;;;;;;6.75;5.00;;;10.50;93.80;;;;;;4955998;28;20038;-68
2021/10/28 02:05:21;;;;;;;5.93;4.90;;;10.40;93.80;;;;;;4959588;28;20027;-68
2021/10/28 02:07:48;;;;;;;9.40;5.15;;;10.40;93.90;;;;;;4956531;28;20038;-68
2021/10/28 02:10:15;;;;;;;7.90;5.47;;;10.40;93.90;;;;;;4958017;28;20038;-68
2021/10/28 02:12:41;;;;;;;7.40;5.40;;;10.30;94.00;;;;;;4956582;28;20047;-68
2021/10/28 02:15:09;;;;;;;6.97;4.97;;;10.20;93.90;;;;;;4956194;28;20050;-68
2021/10/28 02:17:36;;;;;;;7.40;5.07;;;10.20;94.00;;;;;;4957447;28;20031;-68
2021/10/28 02:20:03;;;;;;;7.30;5.25;;;10.10;93.90;;;;;;4955148;28;20039;-68
2021/10/28 02:22:29;;;;;;;7.82;5.00;;;10.10;93.90;;;;;;4972785;28;20069;-68
2021/10/28 02:24:55;;;;;;;9.10;5.28;;;10.00;93.90;;;;;;4955392;28;20035;-68
2021/10/28 02:27:21;;;;;;;6.70;4.70;;;9.90;94.00;;;;;;4969477;28;20507;-68
2021/10/28 02:29:46;;;;;;;9.18;5.35;;;9.90;94.00;;;;;;4958511;28;20042;-68
2021/10/28 02:32:12;;;;;;;7.43;5.07;;;9.80;94.20;;;;;;4955586;28;20054;-68
2021/10/28 02:34:38;;;;;;;8.48;5.32;;;9.80;94.30;;;;;;4957736;28;20034;-68
2021/10/28 02:37:05;;;;;;;7.90;5.95;;;9.80;94.40;;;;;;4956177;28;20126;-68
2021/10/28 02:39:31;;;;;;;8.18;5.82;;;9.70;94.40;;;;;;4963376;28;20056;-68
2021/10/28 02:41:57;;;;;;;9.70;6.10;;;9.70;94.40;;;;;;4956914;28;20539;-68
2021/10/28 02:44:23;;;;;;;8.40;5.75;;;9.70;94.40;;;;;;4955902;28;20031;-68
2021/10/28 02:46:49;;;;;;;7.60;5.75;;;9.70;94.50;;;;;;4972407;28;20042;-68
2021/10/28 02:49:15;;;;;;;9.70;6.00;;;9.70;94.60;;;;;;4956986;28;20049;-68
2021/10/28 02:51:47;;;;;;;7.88;6.18;;;9.60;94.50;;;;;;4954046;28;20063;-68
2021/10/28 02:54:21;;;;;;;7.85;5.75;;;9.60;94.50;;;;;;4957274;28;20650;-68
2021/10/28 02:56:47;;;;;;;8.60;6.05;;;9.60;94.60;;;;;;4955061;28;20134;-68
2021/10/28 02:59:13;;;;;;;9.18;6.85;;;9.50;94.60;;;;;;4954745;28;20031;-68
2021/10/28 03:01:51;;;;;;;8.20;6.13;;;9.50;94.70;;;;;;4955572;28;20725;-68
2021/10/28 03:04:19;;;;;;;8.82;5.97;;;9.40;94.80;;;;;;4953216;28;20085;-68
2021/10/28 03:06:45;;;;;;;11.35;6.38;;;9.50;94.80;;;;;;4955856;28;20042;-67
2021/10/28 03:09:13;;;;;;;12.77;7.53;;;9.50;94.80;;;;;;4954038;28;20094;-68
2021/10/28 03:11:41;;;;;;;12.60;7.45;;;9.40;94.70;;;;;;4956863;28;20042;-68
2021/10/28 03:14:11;;;;;;;7.55;6.25;;;9.40;94.80;;;;;;4956038;28;20058;-68
2021/10/28 03:16:54;;;;;;;9.27;6.57;;;9.40;94.90;;;;;;4954289;28;20495;-68
2021/10/28 03:27:43;;;;;;;10.85;7.25;;;9.20;95.00;;;;;;4969586;28;20042;-68
2021/10/28 03:30:09;;;;;;;9.65;6.60;;;9.20;94.90;;;;;;4957642;28;20041;-68
2021/10/28 03:32:35;;;;;;;9.65;7.15;;;9.20;94.90;;;;;;4953679;28;20046;-68
2021/10/28 03:35:01;;;;;;;10.48;7.45;;;9.20;95.30;;;;;;4956092;28;20046;-68
2021/10/28 03:37:30;;;;;;;10.40;7.30;;;9.20;95.00;;;;;;4954819;28;20472;-68
2021/10/28 04:22:01;;;;;;;13.32;8.32;;;8.90;95.20;;;;;;4960833;28;20427;-68
2021/10/28 04:29:55;;;;;;;14.82;8.65;;;8.90;95.30;;;;;;4956914;28;20079;-68
2021/10/28 04:32:22;;;;;;;10.63;8.18;;;8.90;95.40;;;;;;4960348;28;20067;-68
2021/10/28 04:34:47;;;;;;;11.25;8.10;;;8.90;95.40;;;;;;4956383;28;20098;-69
2021/10/28 04:37:13;;;;;;;14.43;7.78;;;8.80;95.30;;;;;;4975489;28;20130;-68
2021/10/28 04:39:39;;;;;;;11.63;8.32;;;8.80;95.30;;;;;;4957857;28;20042;-68
2021/10/28 04:42:05;;;;;;;13.18;8.35;;;8.80;95.20;;;;;;4960677;28;20035;-68
2021/10/28 04:44:30;;;;;;;12.07;8.20;;;8.80;95.10;;;;;;4958629;28;20046;-68
2021/10/28 04:46:56;;;;;;;11.23;7.40;;;8.80;95.10;;;;;;4959544;28;20035;-69
2021/10/28 04:49:22;;;;;;;11.50;7.82;;;8.70;95.20;;;;;;4958160;28;20043;-68
2021/10/28 04:51:50;;;;;;;10.73;7.43;;;8.70;95.20;;;;;;4959469;28;20031;-68
2021/10/28 04:54:16;;;;;;;13.30;8.70;;;8.70;95.20;;;;;;4958750;28;20122;-68
2021/10/28 04:56:41;;;;;;;12.70;8.73;;;8.60;95.10;;;;;;4959101;28;20137;-68
2021/10/28 04:59:07;;;;;;;11.35;7.47;;;8.70;95.00;;;;;;4959836;28;20042;-68
2021/10/28 05:01:34;;;;;;;11.75;8.15;;;8.60;95.00;;;;;;4958088;28;20035;-68
2021/10/28 05:04:00;;;;;;;12.70;8.13;;;8.60;95.00;;;;;;4960690;28;20047;-68
2021/10/28 05:06:25;;;;;;;11.85;7.60;;;8.60;95.10;;;;;;4956836;28;20521;-69
2021/10/28 05:08:51;;;;;;;12.60;8.10;;;8.60;95.20;;;;;;4960673;28;20113;-68
2021/10/28 05:11:20;;;;;;;13.02;9.00;;;8.60;95.20;;;;;;4963170;28;20475;-68
2021/10/28 05:13:47;;;;;;;13.82;8.85;;;8.60;95.30;;;;;;4957412;28;20043;-68
2021/10/28 05:16:13;;;;;;;14.57;9.07;;;8.60;95.30;;;;;;4949694;28;20050;-69
2021/10/28 05:18:42;;;;;;;13.57;8.85;;;8.50;95.30;;;;;;4958502;28;20053;-68
2021/10/28 05:21:09;;;;;;;15.52;8.75;;;8.60;95.40;;;;;;4957653;28;20211;-70
2021/10/28 05:23:36;;;;;;;13.80;8.73;;;8.50;95.30;;;;;;4957036;28;20035;-68
2021/10/28 05:26:02;;;;;;;13.88;9.05;;;8.60;95.30;;;;;;4955538;28;20126;-68
2021/10/28 05:28:28;;;;;;;14.25;8.45;;;8.50;95.30;;;;;;4954551;28;20167;-73
2021/10/28 05:30:55;;;;;;;12.55;8.63;;;8.50;95.20;;;;;;4955491;28;20043;-74
2021/10/28 05:33:20;;;;;;;14.20;9.45;;;8.50;95.30;;;;;;4956379;28;20031;-73
2021/10/28 05:35:46;;;;;;;13.77;8.45;;;8.50;95.20;;;;;;4965023;28;20093;-72
2021/10/28 05:38:12;;;;;;;13.05;8.65;;;8.50;95.30;;;;;;4954492;28;20028;-74
2021/10/28 05:40:38;;;;;;;14.85;8.48;;;8.50;95.30;;;;;;4965601;28;20041;-74
2021/10/28 05:43:03;;;;;;;12.80;8.68;;;8.50;95.20;;;;;;4962364;28;20130;-74
2021/10/28 05:45:32;;;;;;;14.40;8.13;;;8.40;95.10;;;;;;4964877;28;20054;-76
2021/10/28 05:47:57;;;;;;;13.68;8.90;;;8.50;95.10;;;;;;4957945;28;20038;-74
2021/10/28 05:50:24;;;;;;;13.80;9.25;;;8.40;95.20;;;;;;4960887;28;20035;-73
2021/10/28 05:52:53;;;;;;;14.73;9.07;;;8.40;95.20;;;;;;4956286;28;20416;-73
2021/10/28 05:55:21;;;;;;;14.30;9.63;;;8.40;95.30;;;;;;4958661;28;20043;-73
2021/10/28 05:57:47;;;;;;;13.23;8.88;;;8.40;95.30;;;;;;4955502;28;20081;-73
2021/10/28 06:00:13;;;;;;;14.43;9.90;;;8.40;95.20;;;;;;4959285;28;20786;-72
2021/10/28 06:02:39;;;;;;;14.25;8.95;;;8.40;95.30;;;;;;4956359;28;20049;-71
2021/10/28 06:05:05;;;;;;;16.15;9.82;;;8.40;95.30;;;;;;4958833;28;20054;-69
2021/10/28 06:07:32;;;;;;;14.63;9.05;;;8.40;95.30;;;;;;4960076;28;20350;-72
2021/10/28 06:09:58;;;;;;;12.82;8.32;;;8.40;95.30;;;;;;4958256;28;20154;-73
2021/10/28 06:12:25;;;;;;;14.23;8.57;;;8.40;95.30;;;;;;4957963;28;20118;-73
2021/10/28 06:14:51;;;;;;;15.07;9.13;;;8.40;95.30;;;;;;4970722;28;20075;-75
2021/10/28 06:17:19;;;;;;;15.20;9.15;;;8.50;95.30;;;;;;4973518;28;20070;-73
2021/10/28 06:19:44;;;;;;;13.00;8.18;;;8.50;95.30;;;;;;4958885;28;20034;-72
2021/10/28 06:22:10;;;;;;;13.18;8.73;;;8.50;95.30;;;;;;4959429;28;20571;-70
2021/10/28 06:24:36;;;;;;;13.60;9.07;;;8.50;95.30;;;;;;4955134;28;20031;-70
2021/10/28 06:27:02;;;;;;;15.35;9.43;;;8.50;95.40;;;;;;4958277;28;20077;-70
2021/10/28 06:29:28;;;;;;;14.15;8.95;;;8.50;95.30;;;;;;4955145;28;20565;-70
2021/10/28 06:31:53;;;;;;;12.88;8.93;;;8.60;95.30;;;;;;4957403;28;20114;-73
2021/10/28 06:34:21;;;;;;;15.63;9.95;;;8.60;95.20;;;;;;4954170;28;20057;-71
2021/10/28 06:36:49;;;;;;;14.25;8.43;;;8.60;95.20;;;;;;4955080;28;20042;-71
2021/10/28 06:39:16;;;;;;;16.73;9.18;;;8.70;95.30;;;;;;4959200;28;20045;-71
2021/10/28 06:41:42;;;;;;;15.00;9.30;;;8.70;95.30;;;;;;4955866;28;20043;-71
2021/10/28 06:44:08;;;;;;;13.85;8.70;;;8.80;95.20;;;;;;4969203;28;20039;-71
2021/10/28 06:46:35;;;;;;;14.10;8.65;;;8.90;95.20;;;;;;4952509;28;20034;-71
2021/10/28 06:49:03;;;;;;;15.60;9.02;;;8.90;95.20;;;;;;4956895;28;20035;-71
2021/10/28 06:51:31;;;;;;;14.85;9.75;;;9.00;95.20;;;;;;4956347;28;20451;-74
2021/10/28 06:54:06;;;;;;;12.95;9.10;;;9.10;95.20;;;;;;4954404;28;20404;-70
2021/10/28 07:04:47;;;;;;;13.38;8.82;;;9.40;94.80;;;;;;4954479;28;20027;-72
2021/10/28 07:07:14;;;;;;;16.23;9.25;;;9.40;94.60;;;;;;4954181;28;20031;-72
2021/10/28 07:09:44;;;;;;;15.60;10.07;;;9.50;94.60;;;;;;4951973;28;20502;-73
2021/10/28 07:12:26;;;;;;;14.93;9.68;;;9.60;94.60;;;;;;4960283;28;20137;-70
2021/10/28 07:14:57;;;;;;;18.30;11.20;;;9.60;94.70;;;;;;4956338;28;20125;-72
2021/10/28 07:17:34;;;;;;;16.38;9.18;;;9.70;94.40;;;;;;4971469;28;20039;-72
2021/10/28 07:20:14;;;;;;;13.63;9.48;;;9.80;94.20;;;;;;4968727;28;20053;-71
2021/10/28 07:28:41;;;;;;;16.52;10.00;;;10.00;93.80;;;;;;4966818;28;20784;-72
2021/10/28 07:33:55;;;;;;;15.93;9.93;;;10.40;93.70;;;;;;4966924;28;20118;-72
2021/10/28 07:36:37;;;;;;;15.45;9.70;;;10.80;92.90;;;;;;4951271;28;20085;-72
2021/10/28 07:56:06;;;;;;;14.73;10.30;;;11.10;92.20;;;;;;4951233;28;20043;-69
2021/10/28 08:14:23;;;;;;;14.00;8.57;;;11.50;91.40;;;;;;4951624;28;20042;-71
2021/10/28 08:22:16;;;;;;;13.05;8.88;;;11.80;90.90;;;;;;4951053;28;20296;-71
2021/10/28 08:30:24;;;;;;;10.55;8.30;;;12.20;90.70;;;;;;4951536;28;20040;-73
2021/10/28 08:32:49;;;;;;;11.82;7.72;;;12.30;90.60;;;;;;4951650;28;20096;-75
2021/10/28 08:35:15;;;;;;;11.20;7.40;;;12.50;90.30;;;;;;4952013;28;20039;-72
2021/10/28 08:37:55;;;;;;;11.90;7.97;;;12.60;90.00;;;;;;4956766;28;20748;-72
2021/10/28 08:40:21;;;;;;;9.77;7.32;;;12.70;89.20;;;;;;4952071;28;20034;-73
2021/10/28 08:42:47;;;;;;;12.05;7.65;;;12.90;89.00;;;;;;4966455;28;20027;-73
2021/10/28 08:45:17;;;;;;;9.27;7.20;;;13.10;88.00;;;;;;4950211;28;20830;-73
2021/10/28 08:47:53;;;;;;;11.93;6.60;;;15.10;78.90;;;;;;4950849;28;20041;-72
2021/10/28 08:53:25;;;;;;;8.98;5.82;;;19.20;61.90;;;;;;4950241;28;20814;-72
2021/10/28 09:24:27;;;;;;;8.05;5.13;;;35.80;30.00;;;;;;4952890;28;20062;-73
2021/10/28 09:29:39;;;;;;;4.72;4.22;;;37.00;28.40;;;;;;4955336;28;20042;-73
2021/10/28 09:49:56;;;;;;;5.65;4.22;;;22.40;49.10;;;;;;4953385;28;20059;-72
2021/10/28 09:52:31;;;;;;;7.03;4.72;;;21.10;52.00;;;;;;4968894;28;20444;-69
2021/10/28 09:58:05;;;;;;;5.53;4.60;;;19.20;57.20;;;;;;4952726;28;20129;-69
2021/10/28 10:00:37;;;;;;;6.90;4.90;;;18.60;59.90;;;;;;4953170;28;20046;-69
2021/10/28 10:03:38;;;;;;;7.25;4.95;;;18.10;61.60;;;;;;4953020;28;20049;-69
2021/10/28 10:05:59;;;;;;;9.23;5.20;;;17.90;62.60;;;;;;4952659;28;20098;-69
2021/10/28 10:08:29;;;;;;;9.40;4.85;;;17.70;62.40;;;;;;4960080;28;20516;-69
2021/10/28 10:10:57;;;;;;;7.45;5.82;;;17.30;64.80;;;;;;4953892;28;20373;-69
2021/10/28 10:13:24;;;;;;;6.63;5.28;;;17.10;64.90;;;;;;4951647;28;20039;-68
2021/10/28 10:15:53;;;;;;;10.32;5.53;;;16.90;64.80;;;;;;4952458;28;20535;-68
2021/10/28 10:18:22;;;;;;;7.28;5.25;;;16.80;66.30;;;;;;4956102;28;20043;-69
2021/10/28 10:20:55;;;;;;;6.85;5.15;;;16.70;67.10;;;;;;4970218;28;20245;-69
2021/10/28 10:29:44;;;;;;;8.57;5.30;;;16.40;69.00;;;;;;4951526;28;20081;-69
2021/10/28 11:19:58;;;;;;;7.90;5.57;;;16.00;70.00;;;;;;4966228;28;20038;-69
2021/10/28 12:46:43;;;;;;;5.55;3.85;;;17.40;65.50;;;;;;4962237;28;20045;-72
2021/10/28 15:29:25;;;;;;;6.50;3.58;;;15.30;71.80;;;;;;4958285;28;20043;-67
2021/10/28 15:37:03;;;;;;;4.25;3.03;;;14.90;73.60;;;;;;4958972;28;20026;-67
2021/10/28 15:51:44;;;;;;;4.65;3.72;;;14.10;77.30;;;;;;4957283;28;20531;-63
2021/10/28 15:53:53;;;;;;;8.32;4.07;;;14.00;78.20;;;;;;4955059;28;20058;-65
2021/10/28 15:56:30;;;;;;;8.70;4.90;;;13.80;78.90;;;;;;4958606;28;20050;-63
2021/10/28 16:23:52;;;;;;;10.95;6.10;;;12.80;84.40;;;;;;4966008;28;20062;-72
2021/10/28 16:26:18;;;;;;;9.13;6.28;;;12.70;84.80;;;;;;4957327;28;20061;-73
2021/10/28 16:28:44;;;;;;;11.05;6.70;;;12.70;85.10;;;;;;4958411;28;20399;-71
2021/10/28 16:31:12;;;;;;;13.30;6.68;;;12.60;85.50;;;;;;4958357;28;20127;-73
2021/10/28 16:33:39;;;;;;;13.32;7.57;;;12.50;85.80;;;;;;4973024;28;20070;-73
2021/10/28 16:36:05;;;;;;;14.45;9.32;;;12.50;86.20;;;;;;4958584;28;20523;-73
2021/10/28 16:38:31;;;;;;;15.10;8.95;;;12.40;86.50;;;;;;4961094;28;20035;-74
2021/10/28 16:40:57;;;;;;;18.58;9.52;;;12.30;86.80;;;;;;4966789;28;20522;-73
2021/10/28 16:43:23;;;;;;;17.27;9.93;;;12.30;87.10;;;;;;4967242;28;20031;-72
2021/10/28 16:45:49;;;;;;;17.42;10.43;;;12.20;87.50;;;;;;4966816;28;20403;-72
2021/10/28 16:48:16;;;;;;;17.05;9.70;;;12.20;87.80;;;;;;4960908;28;20101;-72
2021/10/28 16:50:42;;;;;;;18.55;9.52;;;12.10;88.20;;;;;;4960316;28;20078;-73
2021/10/28 16:53:08;;;;;;;14.55;9.25;;;12.00;88.70;;;;;;4976602;28;20035;-72
2021/10/28 16:55:35;;;;;;;15.18;9.10;;;12.00;89.20;;;;;;4961295;28;20462;-72
2021/10/28 16:58:01;;;;;;;14.63;8.65;;;11.90;89.80;;;;;;4956413;28;20035;-71
2021/10/28 17:00:27;;;;;;;20.27;9.63;;;11.90;90.00;;;;;;4956056;28;20774;-71
2021/10/28 17:02:53;;;;;;;16.02;9.00;;;11.90;90.30;;;;;;4975026;28;20031;-72
2021/10/28 17:05:19;;;;;;;14.05;7.93;;;11.80;90.50;;;;;;4959557;28;20039;-72
2021/10/28 17:07:45;;;;;;;15.63;8.23;;;11.80;90.50;;;;;;4974405;28;20113;-73
2021/10/28 17:10:11;;;;;;;15.23;9.18;;;11.80;90.60;;;;;;4952419;28;20031;-72
2021/10/28 17:12:36;;;;;;;14.20;8.95;;;11.70;90.70;;;;;;4960738;28;20037;-72
2021/10/28 17:15:08;;;;;;;12.90;8.20;;;11.70;90.70;;;;;;4963344;28;20415;-72
2021/10/28 17:17:34;;;;;;;15.68;8.88;;;11.70;90.80;;;;;;4962933;28;20097;-68
2021/10/28 17:20:07;;;;;;;14.35;8.13;;;11.70;90.90;;;;;;4961846;28;20701;-73
2021/10/28 17:22:35;;;;;;;12.18;7.70;;;11.70;90.90;;;;;;4960201;28;20034;-71
2021/10/28 17:25:04;;;;;;;13.60;6.95;;;11.70;91.10;;;;;;4969151;28;20071;-72
2021/10/28 17:27:30;;;;;;;11.27;6.45;;;11.70;91.10;;;;;;4950785;28;20134;-74
2021/10/28 17:29:56;;;;;;;10.90;7.03;;;11.60;91.00;;;;;;4949388;28;20039;-69
2021/10/28 17:32:22;;;;;;;11.32;6.35;;;11.70;91.10;;;;;;4952349;28;20035;-73
2021/10/28 17:34:48;;;;;;;8.30;5.93;;;11.70;90.70;;;;;;4950640;28;20051;-67
2021/10/28 17:37:13;;;;;;;8.45;6.10;;;11.70;90.60;;;;;;4945187;28;20035;-75
2021/10/28 17:39:39;;;;;;;10.82;5.75;;;11.80;89.80;;;;;;4947730;28;20051;-70
2021/10/28 17:42:05;;;;;;;8.88;5.60;;;11.90;89.00;;;;;;4954492;28;20034;-71
2021/10/28 17:44:43;;;;;;;7.35;5.35;;;11.90;87.70;;;;;;4954234;28;20062;-71
2021/10/28 17:47:09;;;;;;;7.47;4.80;;;11.90;86.80;;;;;;4945678;28;20035;-74
2021/10/28 17:49:37;;;;;;;7.60;4.90;;;12.00;86.40;;;;;;4972310;28;20094;-74
2021/10/28 17:52:04;;;;;;;7.32;5.00;;;12.00;84.90;;;;;;4969443;28;20042;-74
2021/10/28 17:54:30;;;;;;;8.52;5.20;;;12.00;84.70;;;;;;4948798;28;20043;-73
2021/10/28 17:56:56;;;;;;;8.02;4.45;;;12.00;84.70;;;;;;4961984;28;20438;-74
2021/10/28 17:59:22;;;;;;;7.50;4.97;;;12.00;85.10;;;;;;4957108;28;20113;-73
2021/10/28 18:01:48;;;;;;;8.55;5.75;;;12.00;85.10;;;;;;4951662;28;20031;-73
2021/10/28 18:04:14;;;;;;;9.25;4.82;;;11.90;84.20;;;;;;4945116;28;20031;-73
2021/10/28 18:06:40;;;;;;;5.93;4.45;;;11.90;83.90;;;;;;4962546;28;20525;-73
2021/10/28 18:09:06;;;;;;;8.00;4.68;;;11.90;83.10;;;;;;4953644;28;20056;-74
2021/10/28 18:11:32;;;;;;;7.63;5.30;;;11.90;83.10;;;;;;4956598;28;20042;-74
2021/10/28 18:13:58;;;;;;;7.47;5.03;;;12.00;83.00;;;;;;4976906;28;20030;-72
2021/10/28 18:16:26;;;;;;;9.38;5.07;;;12.00;82.80;;;;;;4959060;28;20046;-73
2021/10/28 18:18:53;;;;;;;9.25;5.35;;;11.90;81.80;;;;;;4954500;28;20084;-75
2021/10/28 18:21:24;;;;;;;8.63;5.38;;;11.90;81.70;;;;;;4960136;28;20041;-72
2021/10/28 18:23:51;;;;;;;7.93;5.05;;;11.90;81.50;;;;;;4961224;28;20030;-68
2021/10/28 18:26:19;;;;;;;8.77;4.78;;;11.90;81.20;;;;;;4956411;28;20027;-67
2021/10/28 18:28:45;;;;;;;8.25;5.53;;;11.90;81.20;;;;;;4952253;28;20466;-77
2021/10/28 18:31:10;;;;;;;8.00;5.07;;;12.00;81.10;;;;;;4956458;28;20064;-75
2021/10/28 18:33:36;;;;;;;9.93;5.75;;;12.00;81.20;;;;;;4950059;28;20560;-72
2021/10/28 18:36:04;;;;;;;9.55;5.28;;;11.90;81.40;;;;;;4969358;28;20852;-72
2021/10/28 18:38:32;;;;;;;9.27;5.38;;;11.90;80.50;;;;;;4949905;28;20045;-72
2021/10/28 18:40:58;;;;;;;9.48;5.50;;;11.90;80.60;;;;;;4958227;28;20074;-72
2021/10/28 18:43:25;;;;;;;10.30;6.18;;;11.80;81.40;;;;;;4959788;28;20476;-65
2021/10/28 18:45:51;;;;;;;7.90;5.32;;;11.80;81.40;;;;;;4955061;28;20042;-73
2021/10/28 18:48:17;;;;;;;9.45;6.03;;;11.70;81.90;;;;;;4971232;28;20043;-71
2021/10/28 18:50:43;;;;;;;10.27;6.53;;;11.70;81.50;;;;;;4961878;28;20041;-73
2021/10/28 18:53:09;;;;;;;8.95;5.60;;;11.70;81.20;;;;;;4959095;28;20082;-73
2021/10/28 18:55:36;;;;;;;10.13;6.03;;;11.60;81.20;;;;;;4953362;28;20074;-74
2021/10/28 18:58:02;;;;;;;10.75;6.10;;;11.60;82.00;;;;;;4976990;28;20565;-67
2021/10/28 19:00:28;;;;;;;8.27;5.53;;;11.50;82.20;;;;;;4963544;28;20467;-73
2021/10/28 19:02:54;;;;;;;9.20;5.70;;;11.40;81.90;;;;;;4959525;28;20047;-74
2021/10/28 19:05:21;;;;;;;10.38;6.40;;;11.40;82.50;;;;;;4959314;28;20030;-73
2021/10/28 19:07:48;;;;;;;10.32;6.30;;;11.30;83.00;;;;;;4960709;28;20564;-73
2021/10/28 19:10:14;;;;;;;11.30;6.53;;;11.30;83.00;;;;;;4945944;28;20033;-75
2021/10/28 19:12:42;;;;;;;11.77;6.28;;;11.20;83.70;;;;;;4957300;28;20038;-76
2021/10/28 19:15:08;;;;;;;11.77;6.85;;;11.10;84.40;;;;;;4964685;28;20043;-74
2021/10/28 19:17:35;;;;;;;13.23;6.60;;;11.00;84.90;;;;;;4943963;28;20034;-75
2021/10/28 19:20:03;;;;;;;11.00;6.70;;;11.00;84.80;;;;;;4946284;28;20035;-74
2021/10/28 19:22:31;;;;;;;11.60;6.75;;;11.00;85.00;;;;;;4951841;28;20035;-76
2021/10/28 19:25:02;;;;;;;10.35;6.97;;;10.90;85.20;;;;;;4959161;28;20035;-74
2021/10/28 19:27:27;;;;;;;12.20;7.45;;;10.90;85.80;;;;;;4965124;28;20045;-73
2021/10/28 19:30:01;;;;;;;13.43;7.47;;;10.80;85.50;;;;;;4948857;28;20142;-69
2021/10/28 19:32:26;;;;;;;11.90;7.10;;;10.80;85.90;;;;;;4950807;28;20043;-74
2021/10/28 19:34:54;;;;;;;12.85;7.82;;;10.70;86.20;;;;;;4947358;28;20042;-74
2021/10/28 19:37:29;;;;;;;13.27;8.02;;;10.70;86.80;;;;;;4944820;28;20505;-70
2021/10/28 19:40:17;;;;;;;14.45;8.23;;;10.70;86.80;;;;;;4948072;28;20038;-67
2021/10/28 19:47:49;;;;;;;15.60;8.20;;;10.60;86.70;;;;;;4945726;28;20039;-67
2021/10/28 19:50:15;;;;;;;13.02;8.25;;;10.60;87.00;;;;;;4951457;28;20030;-70
2021/10/28 19:52:42;;;;;;;15.68;8.85;;;10.60;87.30;;;;;;4956564;28;20039;-69
2021/10/28 19:55:09;;;;;;;14.27;9.13;;;10.50;87.50;;;;;;4960051;28;20112;-66
2021/10/28 19:57:40;;;;;;;15.02;8.82;;;10.50;87.70;;;;;;4954772;28;20242;-67
2021/10/28 20:05:32;;;;;;;16.58;9.00;;;10.40;87.70;;;;;;4946042;28;20169;-69
2021/10/28 20:13:55;;;;;;;14.40;8.38;;;10.40;88.40;;;;;;4945047;28;20070;-70
2021/10/28 20:21:50;;;;;;;14.70;8.77;;;10.30;88.90;;;;;;4945918;28;20039;-69
2021/10/28 20:24:17;;;;;;;15.18;8.75;;;10.30;89.30;;;;;;4947534;28;20091;-69
2021/10/28 20:26:42;;;;;;;16.10;9.43;;;10.30;89.10;;;;;;4952786;28;20736;-69
2021/10/28 20:29:08;;;;;;;19.10;10.38;;;10.30;89.30;;;;;;4956373;28;20102;-69
2021/10/28 20:31:34;;;;;;;18.70;11.05;;;10.30;89.30;;;;;;4961626;28;20039;-69
2021/10/28 20:37:05;;;;;;;17.70;9.57;;;10.30;88.40;;;;;;4970802;28;20498;-69
2021/10/28 20:39:32;;;;;;;19.67;10.80;;;10.30;88.50;;;;;;4951736;28;20051;-69
2021/10/28 20:41:58;;;;;;;18.77;10.35;;;10.30;88.40;;;;;;4960187;28;20031;-68
2021/10/28 20:44:25;;;;;;;21.50;11.75;;;10.30;88.60;;;;;;4953590;28;20085;-70
2021/10/28 20:46:51;;;;;;;20.35;10.95;;;10.30;89.00;;;;;;4967987;28;20085;-71
2021/10/28 20:49:17;;;;;;;24.13;12.48;;;10.30;88.70;;;;;;4972795;28;20031;-71
2021/10/28 20:51:43;;;;;;;21.33;11.45;;;10.40;88.50;;;;;;4955950;28;20108;-71
2021/10/28 20:54:09;;;;;;;23.00;13.57;;;10.40;88.10;;;;;;4950706;28;20480;-71
2021/10/28 20:56:36;;;;;;;21.65;12.52;;;10.40;88.50;;;;;;4946390;28;20058;-71
2021/10/28 20:59:01;;;;;;;21.83;13.00;;;10.40;88.20;;;;;;4943151;28;20051;-71
2021/10/28 21:01:27;;;;;;;22.85;13.38;;;10.40;88.00;;;;;;4968150;28;20031;-71
2021/10/28 21:03:53;;;;;;;25.02;14.52;;;10.40;87.70;;;;;;4962347;28;20705;-71
2021/10/28 21:06:19;;;;;;;25.23;13.80;;;10.40;87.90;;;;;;4965595;28;20049;-71
2021/10/28 21:08:46;;;;;;;25.42;13.90;;;10.50;88.10;;;;;;4964899;28;20130;-71
2021/10/28 21:11:11;;;;;;;24.83;14.35;;;10.60;87.40;;;;;;4957862;28;20034;-71
2021/10/28 21:13:37;;;;;;;20.90;13.63;;;10.60;87.00;;;;;;4952087;28;20039;-71
2021/10/28 21:16:03;;;;;;;20.50;12.80;;;10.60;87.40;;;;;;4944500;28;20031;-71
2021/10/28 21:18:29;;;;;;;25.48;13.68;;;10.60;86.80;;;;;;4944525;28;20082;-71
2021/10/28 21:20:55;;;;;;;23.27;14.10;;;10.50;87.20;;;;;;4965079;28;20485;-71
2021/10/28 21:23:21;;;;;;;24.20;13.98;;;10.60;86.70;;;;;;4969236;28;20026;-71
2021/10/28 21:25:47;;;;;;;28.58;13.82;;;10.60;86.60;;;;;;4959377;28;20027;-71
2021/10/28 21:28:13;;;;;;;24.63;13.82;;;10.60;87.00;;;;;;4956637;28;20045;-70
2021/10/28 21:30:41;;;;;;;20.42;13.05;;;10.60;86.70;;;;;;4952300;28;20039;-70
2021/10/28 21:33:07;;;;;;;24.35;13.85;;;10.50;86.60;;;;;;4946815;28;20043;-71
2021/10/28 21:35:32;;;;;;;25.95;13.38;;;10.60;86.40;;;;;;4943348;28;20038;-70
2021/10/28 21:37:58;;;;;;;21.42;13.52;;;10.60;86.50;;;;;;4946406;28;20923;-70
2021/10/28 21:40:24;;;;;;;24.42;13.65;;;10.60;86.90;;;;;;4953005;28;20462;-71
2021/10/28 21:42:50;;;;;;;24.52;14.07;;;10.50;86.70;;;;;;4957033;28;20574;-71
2021/10/28 21:45:16;;;;;;;25.05;13.45;;;10.50;86.60;;;;;;4959896;28;20031;-71
2021/10/28 21:47:48;;;;;;;23.27;14.13;;;10.50;86.50;;;;;;4954147;28;20048;-71
2021/10/28 21:50:15;;;;;;;23.38;13.05;;;10.50;86.40;;;;;;4968108;28;20092;-71
2021/10/28 21:52:45;;;;;;;22.02;13.48;;;10.40;86.60;;;;;;4959773;28;20031;-71
2021/10/28 21:55:23;;;;;;;24.45;13.98;;;10.50;86.50;;;;;;4957995;28;20035;-70